New York, NY (10028)

4:38 PM EST on February 07, 2016 (GMT -0500)
American Museum of Natural History roof | | Change Station
CLOSE
Current Station
Personal Weather Station
Location: New York, NY
Elevation: 89 ft
Nearby Weather Stations
Active Advisory: Winter Weather Advisory

Elev 89 ft 40.78 °N, 73.97 °W | Updated 13 minutes ago

Clear
Clear
44.0 °F
Feels Like 44 °F
N
2.0
Wind Variable Wind from ESE
Gusts 3.0 mph

Today
High -- | Low -- °F
--% Chance of Precip.
Yesterday
High -- | Low -- °F
Precip. -- in
Pressure 30.04 in
Visibility 10.0 miles
Clouds Clear
Windchill 44 °F
Dew Point 25 °F
Humidity 47%
Rainfall 0.00 in
Snow Depth Not available.
7:00 AM 5:20 PM
Waning Crescent, 1% visible
METAR KNYC 072051Z AUTO 09006KT 10SM CLR 07/M07 A3006 RMK AO2 SLP172 T00721067 56025 $
Pressure 30.04 in
Visibility 10.0 miles
Clouds Clear
Windchill 44 °F
Dew Point 25 °F
Humidity 47%
Rainfall 0.00 in
Snow Depth Not available.
7:00 AM 5:20 PM
Waning Crescent, 1% visible
METAR KNYC 072051Z AUTO 09006KT 10SM CLR 07/M07 A3006 RMK AO2 SLP172 T00721067 56025 $

10-Day Weather Forecast

Almanac

Astronomy

Feb. 07, 2016 Rise Set
Actual Time
Civil Twilight
Nautical Twilight
Astronomical Twilight
Moon
Length of Visible Light
Length of Day
Tomorrow will be .
, % of the Moon is Illuminated

Today's Extremes

State Highs State Lows

Community

WunderPhotos

Upload Photos

1,891,301 photos uploaded!

WunderBlog® & News

Nearby

Air Quality

  Air Quality AQ Index Pollutant
Not available.

Snow Depth

Station Depth Elevation

Earthquake Activity

City Distance Mag. Time & Date
Minimum magnitude displayed is 2.5.

Coastal Water Temperatures

Place Temperature

Stations

Nearby Weather Stations

Station Location Temp. Windchill Dew Point Humidity Wind Precip. Elev Updated Type
                   

Watches & Warnings

Winter Weather Advisory
Issued: 2:22 PM EST Feb. 7, 2016 – National Weather Service

... Winter Weather Advisory in effect from 3 am to 6 PM EST
Monday...

The National Weather Service in Upton has issued a Winter Weather
Advisory for snow... which is in effect from 3 am to 6 PM EST
Monday.

* Locations... New York City... Nassau County... Westchester County.

* Hazard types... accumulating snow and wind.

* Accumulations... snow accumulation of 2 to 4 inches.

* Winds... northeast 10 to 20 mph with gusts up to 30 mph.

* Temperatures... in the lower 30s.

* Visibilities... one half mile at times.

* Timing... snow develops late tonight and will continue through
Monday afternoon.

* Impacts... hazardous travel conditions due to reduced visbilities
and snow covered roads.

Precautionary/preparedness actions...

A Winter Weather Advisory means that periods of snow... sleet... or
freezing rain will cause travel difficulties. Be prepared for
slippery roads and limited visibilities... and use caution while
driving.